Weather at Lutong Airport

Public forecast

Using degrees Celsius for public forecast. Weather courtesy of forecast.io.

Closest aviation weather report (METAR) to Lutong Airport

Closest report is Miri Airport, 7.7 nm (14.3 km) S. Retrieved 2022/08/12 02:00 UTC (30 minutes ago):

WBGR 120200Z 08006KT 9999 SCT016 32/27 Q1010

Closest aviation forecast (TAF) to Lutong Airport

Closest forecast is Miri Airport, 7.7 nm (14.3 km) S. Retrieved 2022-08-12 00:00 UTC (3 hours ago):

TAF WBGR 112300Z 1200/1300 02005KT 9999 FEW016 TEMPO 1207/1211 4000 TSRA SCT014 FEW015CB